createdAt,value
2017-10-30T00:00:13.071Z,32.92
2017-10-30T00:02:41.350Z,22.62
2017-10-30T00:05:09.654Z,29.60
2017-10-30T00:07:37.162Z,20.02
2017-10-30T00:10:04.690Z,24.02
2017-10-30T00:12:32.193Z,35.97
2017-10-30T00:14:59.742Z,35.80
2017-10-30T00:17:27.263Z,28.05
2017-10-30T00:19:54.765Z,36.33
2017-10-30T00:22:22.319Z,35.42
2017-10-30T00:24:49.826Z,35.83
2017-10-30T00:27:17.357Z,36.35
2017-10-30T00:29:45.644Z,32.60
2017-10-30T00:32:13.195Z,32.95
2017-10-30T00:34:41.501Z,31.15
2017-10-30T00:37:09.007Z,27.25
2017-10-30T00:39:36.628Z,38.13
2017-10-30T00:42:04.138Z,24.35
2017-10-30T00:44:32.429Z,28.35
2017-10-30T00:46:59.955Z,28.55
2017-10-30T00:49:27.487Z,27.58
2017-10-30T00:51:55.011Z,39.75
2017-10-30T00:54:22.531Z,26.10
2017-10-30T00:56:50.071Z,35.72
2017-10-30T00:59:17.598Z,39.50
2017-10-30T01:01:45.125Z,30.40
2017-10-30T01:04:13.418Z,34.05
2017-10-30T01:06:40.971Z,31.15
2017-10-30T01:09:09.259Z,29.15
2017-10-30T01:11:36.779Z,27.25
2017-10-30T01:14:04.319Z,29.90
2017-10-30T01:16:31.839Z,34.72
2017-10-30T01:18:59.374Z,17.60
2017-10-30T01:21:27.640Z,26.77
2017-10-30T01:23:55.186Z,19.55
2017-10-30T01:26:22.680Z,39.13
2017-10-30T01:28:50.202Z,25.73
2017-10-30T01:31:17.726Z,24.55
2017-10-30T01:33:45.253Z,20.17
2017-10-30T01:36:12.780Z,19.67
2017-10-30T01:38:40.281Z,44.15
2017-10-30T01:41:07.831Z,20.40
2017-10-30T01:43:35.442Z,29.95
2017-10-30T01:46:02.954Z,29.20
2017-10-30T01:48:30.473Z,19.70
2017-10-30T01:50:58.002Z,24.30
2017-10-30T01:53:25.530Z,27.40
2017-10-30T01:55:53.054Z,22.75
2017-10-30T01:58:20.598Z,35.45
2017-10-30T02:00:49.624Z,38.15
2017-10-30T02:03:17.892Z,49.97
2017-10-30T02:05:46.171Z,23.92
2017-10-30T02:08:14.446Z,42.08
2017-10-30T02:10:42.762Z,23.27
2017-10-30T02:13:10.283Z,26.40
2017-10-30T02:15:38.592Z,35.47
2017-10-30T02:18:06.109Z,30.50
2017-10-30T02:20:34.422Z,33.10
2017-10-30T02:23:01.963Z,34.83
2017-10-30T02:25:30.247Z,31.10
2017-10-30T02:27:57.819Z,23.45
2017-10-30T02:30:25.329Z,29.08
2017-10-30T02:32:52.879Z,40.78
2017-10-30T02:35:20.382Z,37.40
2017-10-30T02:37:47.876Z,22.13
2017-10-30T02:40:15.413Z,22.40
2017-10-30T02:42:42.926Z,24.80
2017-10-30T02:45:10.472Z,35.45
2017-10-30T02:47:37.997Z,32.97
2017-10-30T02:50:05.533Z,29.92
2017-10-30T02:52:33.041Z,35.70
2017-10-30T02:55:00.556Z,30.12
2017-10-30T02:57:28.095Z,18.02
2017-10-30T02:59:56.373Z,18.95
2017-10-30T03:02:24.657Z,34.25
2017-10-30T03:04:52.174Z,36.08
2017-10-30T03:07:19.715Z,34.28
2017-10-30T03:09:47.235Z,39.00
2017-10-30T03:12:14.745Z,36.92
2017-10-30T03:14:42.266Z,21.95
2017-10-30T03:17:09.769Z,41.47
2017-10-30T03:19:37.311Z,31.35
2017-10-30T03:22:04.812Z,15.55
2017-10-30T03:24:33.128Z,37.65
2017-10-30T03:27:00.643Z,23.45
2017-10-30T03:29:28.931Z,17.42
2017-10-30T03:31:56.464Z,41.45
2017-10-30T03:34:24.751Z,38.47
2017-10-30T03:36:53.054Z,27.83
2017-10-30T03:39:20.570Z,27.73
2017-10-30T03:41:48.107Z,26.23
2017-10-30T03:44:15.626Z,25.92
2017-10-30T03:46:43.120Z,26.27
2017-10-30T03:49:10.731Z,33.80
2017-10-30T03:51:39.020Z,25.10
2017-10-30T03:54:06.560Z,27.90
2017-10-30T03:56:34.824Z,25.12
2017-10-30T03:59:03.120Z,25.92
2017-10-30T04:01:30.624Z,24.77
2017-10-30T04:03:58.124Z,38.75
2017-10-30T04:06:26.428Z,31.42
2017-10-30T04:08:53.933Z,29.90
2017-10-30T04:11:21.495Z,30.00
2017-10-30T04:13:50.515Z,23.38
2017-10-30T04:16:18.808Z,11.93
2017-10-30T04:18:46.328Z,28.95
2017-10-30T04:21:13.847Z,15.32
2017-10-30T04:23:41.410Z,41.13
2017-10-30T04:26:08.926Z,29.85
2017-10-30T04:28:37.212Z,22.00
2017-10-30T04:31:04.707Z,20.20
2017-10-30T04:33:32.256Z,22.70
2017-10-30T04:35:59.761Z,30.73
2017-10-30T04:38:27.279Z,22.10
2017-10-30T04:40:54.801Z,23.92
2017-10-30T04:43:22.308Z,27.37
2017-10-30T04:45:49.842Z,30.10
2017-10-30T04:48:17.367Z,37.60
2017-10-30T04:50:45.705Z,24.20
2017-10-30T04:53:13.223Z,45.22
2017-10-30T04:55:40.742Z,24.30
2017-10-30T04:58:08.261Z,12.27
2017-10-30T05:00:35.761Z,18.05
2017-10-30T05:03:03.280Z,17.62
2017-10-30T05:05:30.810Z,18.35
2017-10-30T05:07:58.366Z,25.20
2017-10-30T05:10:25.869Z,31.08
2017-10-30T05:12:53.395Z,19.60
2017-10-30T05:15:20.934Z,21.10
2017-10-30T05:17:48.463Z,24.20
2017-10-30T05:20:15.999Z,18.37
2017-10-30T05:22:43.584Z,32.95
2017-10-30T05:25:11.127Z,23.67
2017-10-30T05:27:38.633Z,23.80
2017-10-30T05:30:06.156Z,36.55
2017-10-30T05:32:33.691Z,45.45
2017-10-30T05:35:01.191Z,27.62
2017-10-30T05:37:29.468Z,21.05
2017-10-30T05:39:57.737Z,12.65
2017-10-30T05:42:26.036Z,29.20
2017-10-30T05:44:53.550Z,31.23
2017-10-30T05:47:21.048Z,22.60
2017-10-30T05:49:48.577Z,22.27
2017-10-30T05:52:16.099Z,30.58
2017-10-30T05:54:43.638Z,26.52
2017-10-30T05:57:11.155Z,14.38
2017-10-30T05:59:38.702Z,30.33
2017-10-30T06:02:06.227Z,20.45
2017-10-30T06:04:33.743Z,30.23
2017-10-30T06:07:02.064Z,24.50
2017-10-30T06:09:29.587Z,29.45
2017-10-30T06:11:57.864Z,22.50
2017-10-30T06:14:26.167Z,22.50
2017-10-30T06:16:53.701Z,18.77
2017-10-30T06:19:21.976Z,18.73
2017-10-30T06:21:50.245Z,33.40
2017-10-30T06:24:18.554Z,21.35
2017-10-30T06:26:46.080Z,20.15
2017-10-30T06:29:14.364Z,23.27
2017-10-30T06:31:41.868Z,34.83
2017-10-30T06:34:09.427Z,24.80
2017-10-30T06:36:36.924Z,26.02
2017-10-30T06:39:05.205Z,21.98
2017-10-30T06:41:33.505Z,29.20
2017-10-30T06:44:01.010Z,23.12
2017-10-30T06:46:28.541Z,12.73
2017-10-30T06:48:56.044Z,14.15
2017-10-30T06:51:23.574Z,28.60
2017-10-30T06:53:51.560Z,21.58
2017-10-30T06:56:20.647Z,23.10
2017-10-30T06:58:48.144Z,20.10
2017-10-30T07:01:16.460Z,15.68
2017-10-30T07:03:44.011Z,23.25
2017-10-30T07:06:11.537Z,23.87
2017-10-30T07:08:39.834Z,9.57
2017-10-30T07:11:07.345Z,21.92
2017-10-30T07:13:34.877Z,21.77
2017-10-30T07:16:02.382Z,27.50
2017-10-30T07:18:30.668Z,27.75
2017-10-30T07:20:58.182Z,24.95
2017-10-30T07:23:25.734Z,17.37
2017-10-30T07:25:53.236Z,25.80
2017-10-30T07:28:21.523Z,14.67
2017-10-30T07:30:49.067Z,20.93
2017-10-30T07:33:17.337Z,20.10
2017-10-30T07:35:45.621Z,9.37
2017-10-30T07:38:13.920Z,14.37
2017-10-30T07:40:41.444Z,30.03
2017-10-30T07:43:09.721Z,28.03
2017-10-30T07:45:38.032Z,15.73
2017-10-30T07:48:05.545Z,23.37
2017-10-30T07:50:33.057Z,20.37
2017-10-30T07:53:00.604Z,15.67
2017-10-30T07:55:28.135Z,16.63
2017-10-30T07:57:56.447Z,14.87
2017-10-30T08:00:23.948Z,16.17
2017-10-30T08:02:51.499Z,12.37
2017-10-30T08:05:19.004Z,17.63
2017-10-30T08:07:46.527Z,23.67
2017-10-30T08:10:14.072Z,15.10
2017-10-30T08:12:41.576Z,26.57
2017-10-30T08:15:09.109Z,11.13
2017-10-30T08:17:37.411Z,16.30
2017-10-30T08:20:04.940Z,16.10
2017-10-30T08:22:32.495Z,20.73
2017-10-30T08:25:00.063Z,16.37
2017-10-30T08:27:28.355Z,19.43
2017-10-30T08:29:56.643Z,21.60
2017-10-30T08:32:24.288Z,14.30
2017-10-30T08:34:52.575Z,11.80
2017-10-30T08:37:20.865Z,22.60
2017-10-30T08:39:48.378Z,10.10
2017-10-30T08:42:17.416Z,11.10
2017-10-30T08:44:44.916Z,12.77
2017-10-30T08:47:12.435Z,19.13
2017-10-30T08:49:39.964Z,18.43
2017-10-30T08:52:08.248Z,23.10
2017-10-30T08:54:36.532Z,7.70
2017-10-30T08:57:04.806Z,15.37
2017-10-30T08:59:32.358Z,13.80
2017-10-30T09:02:00.636Z,16.67
2017-10-30T09:04:28.908Z,13.30
2017-10-30T09:06:57.205Z,13.57
2017-10-30T09:09:24.714Z,18.40
2017-10-30T09:11:52.249Z,11.80
2017-10-30T09:14:19.752Z,10.50
2017-10-30T09:16:47.276Z,12.57
2017-10-30T09:19:14.807Z,7.27
2017-10-30T09:21:42.328Z,17.00
2017-10-30T09:24:10.592Z,15.10
2017-10-30T09:26:38.896Z,16.40
2017-10-30T09:29:06.404Z,21.00
2017-10-30T09:31:33.957Z,20.67
2017-10-30T09:34:01.468Z,11.93
2017-10-30T09:36:29.744Z,13.90
2017-10-30T09:38:58.028Z,10.70
2017-10-30T09:41:25.550Z,11.83
2017-10-30T09:43:53.082Z,17.30
2017-10-30T09:46:20.606Z,18.93
2017-10-30T09:48:48.155Z,12.87
2017-10-30T09:51:15.687Z,17.23
2017-10-30T09:53:43.226Z,21.27
2017-10-30T09:56:10.736Z,15.07
2017-10-30T09:58:38.329Z,20.07
2017-10-30T10:01:05.832Z,22.93
2017-10-30T10:03:34.128Z,15.73
2017-10-30T10:06:01.657Z,21.13
2017-10-30T10:08:29.199Z,16.03
2017-10-30T10:10:56.743Z,15.87
2017-10-30T10:13:24.256Z,14.50
2017-10-30T10:15:52.566Z,17.30
2017-10-30T10:18:20.086Z,13.03
2017-10-30T10:20:48.394Z,15.17
2017-10-30T10:23:15.900Z,18.23
2017-10-30T10:25:43.439Z,14.37
2017-10-30T10:28:10.962Z,11.93
2017-10-30T10:30:38.501Z,6.10
2017-10-30T10:33:06.772Z,13.60
2017-10-30T10:35:35.053Z,12.33
2017-10-30T10:38:03.345Z,10.70
2017-10-30T10:40:30.862Z,8.93
2017-10-30T10:42:58.392Z,13.70
2017-10-30T10:45:25.918Z,13.67
2017-10-30T10:47:53.479Z,11.63
2017-10-30T10:50:20.984Z,7.37
2017-10-30T10:52:48.520Z,24.07
2017-10-30T10:55:16.024Z,13.90
2017-10-30T10:57:44.317Z,9.77
2017-10-30T11:00:11.853Z,14.43
2017-10-30T11:02:39.358Z,6.10
2017-10-30T11:05:06.898Z,18.67
2017-10-30T11:07:34.427Z,10.43
2017-10-30T11:10:01.967Z,9.20
2017-10-30T11:12:29.476Z,14.37
2017-10-30T11:14:56.999Z,16.27
2017-10-30T11:17:25.303Z,14.17
2017-10-30T11:19:52.823Z,14.10
2017-10-30T11:22:20.345Z,9.67
2017-10-30T11:24:47.858Z,9.90
2017-10-30T11:27:16.148Z,8.13
2017-10-30T11:29:44.420Z,11.57
2017-10-30T11:32:12.724Z,8.77
2017-10-30T11:34:40.242Z,9.80
2017-10-30T11:37:07.745Z,4.70
2017-10-30T11:39:35.274Z,11.13
2017-10-30T11:42:03.558Z,7.07
2017-10-30T11:44:31.962Z,14.37
2017-10-30T11:46:59.464Z,12.13
2017-10-30T11:49:27.003Z,9.53
2017-10-30T11:51:54.532Z,8.67
2017-10-30T11:54:22.083Z,7.83
2017-10-30T11:56:49.592Z,12.27
2017-10-30T11:59:17.111Z,7.80
2017-10-30T12:01:44.632Z,4.43
2017-10-30T12:04:12.918Z,4.53
2017-10-30T12:06:41.202Z,7.13
2017-10-30T12:09:08.705Z,6.37
2017-10-30T12:11:36.241Z,10.50
2017-10-30T12:14:03.744Z,8.43
2017-10-30T12:16:31.239Z,7.43
2017-10-30T12:18:58.756Z,7.83
2017-10-30T12:21:26.287Z,12.43
2017-10-30T12:23:53.825Z,8.77
2017-10-30T12:26:21.325Z,8.30
2017-10-30T12:28:49.609Z,8.13
2017-10-30T12:31:17.886Z,8.10
2017-10-30T12:33:46.178Z,7.57
2017-10-30T12:36:14.455Z,6.70
2017-10-30T12:38:42.758Z,11.63
2017-10-30T12:41:10.278Z,10.33
2017-10-30T12:43:38.583Z,9.77
2017-10-30T12:46:06.111Z,19.77
2017-10-30T12:48:33.641Z,12.37
2017-10-30T12:51:01.155Z,11.30
2017-10-30T12:53:28.683Z,16.10
2017-10-30T12:55:56.298Z,14.67
2017-10-30T12:58:23.851Z,16.40
2017-10-30T13:00:51.362Z,12.30
2017-10-30T13:03:18.923Z,10.13
2017-10-30T13:05:46.443Z,11.40
2017-10-30T13:08:13.994Z,11.20
2017-10-30T13:10:41.504Z,15.50
2017-10-30T13:13:09.776Z,12.33
2017-10-30T13:15:38.228Z,16.10
2017-10-30T13:18:05.740Z,17.70
2017-10-30T13:20:33.292Z,10.33
2017-10-30T13:23:00.830Z,14.43
2017-10-30T13:25:29.132Z,7.63
2017-10-30T13:27:56.643Z,11.20
2017-10-30T13:30:24.179Z,8.17
2017-10-30T13:32:51.717Z,7.40
2017-10-30T13:35:19.255Z,18.30
2017-10-30T13:37:47.559Z,10.43
2017-10-30T13:40:15.064Z,12.07
2017-10-30T13:42:44.132Z,13.57
2017-10-30T13:45:11.668Z,11.60
2017-10-30T13:47:39.259Z,19.60
2017-10-30T13:50:06.768Z,11.33
2017-10-30T13:52:34.310Z,14.90
2017-10-30T13:55:02.580Z,15.93
2017-10-30T13:57:30.880Z,10.03
2017-10-30T13:59:58.420Z,22.33
2017-10-30T14:02:26.719Z,11.23
2017-10-30T14:04:54.249Z,13.53
2017-10-30T14:07:21.771Z,10.70
2017-10-30T14:09:49.323Z,13.40
2017-10-30T14:12:16.876Z,12.20
2017-10-30T14:14:44.419Z,13.83
2017-10-30T14:17:11.959Z,10.70
2017-10-30T14:19:40.270Z,15.80
2017-10-30T14:22:07.786Z,11.83
2017-10-30T14:24:36.070Z,11.87
2017-10-30T14:27:04.388Z,20.83
2017-10-30T14:29:31.897Z,8.40
2017-10-30T14:32:00.201Z,10.83
2017-10-30T14:34:27.705Z,8.07
2017-10-30T14:36:55.338Z,13.30
2017-10-30T14:39:22.853Z,9.47
2017-10-30T14:41:51.139Z,19.13
2017-10-30T14:44:19.452Z,9.53
2017-10-30T14:46:46.957Z,24.10
2017-10-30T14:49:14.495Z,20.00
2017-10-30T14:51:41.995Z,13.93
2017-10-30T14:54:09.507Z,7.90
2017-10-30T14:56:37.018Z,16.03
2017-10-30T14:59:04.541Z,12.00
2017-10-30T15:01:32.050Z,10.13
2017-10-30T15:03:59.614Z,7.43
2017-10-30T15:06:27.148Z,12.73
2017-10-30T15:08:54.653Z,6.80
2017-10-30T15:11:22.172Z,10.93
2017-10-30T15:13:49.687Z,7.63
2017-10-30T15:16:17.228Z,6.80
2017-10-30T15:18:44.733Z,14.80
2017-10-30T15:21:12.257Z,11.70
2017-10-30T15:23:39.761Z,13.00
2017-10-30T15:26:07.307Z,12.33
2017-10-30T15:28:35.581Z,11.67
2017-10-30T15:31:03.899Z,16.27
2017-10-30T15:33:31.428Z,11.57
2017-10-30T15:35:58.982Z,12.73
2017-10-30T15:38:26.484Z,10.90
2017-10-30T15:40:53.996Z,9.37
2017-10-30T15:43:21.544Z,17.90
2017-10-30T15:45:49.824Z,10.23
2017-10-30T15:48:18.117Z,14.27
2017-10-30T15:50:45.642Z,8.57
2017-10-30T15:53:13.962Z,9.20
2017-10-30T15:55:41.482Z,16.37
2017-10-30T15:58:09.784Z,10.87
2017-10-30T16:00:37.297Z,6.05
2017-10-30T16:03:04.802Z,9.90
2017-10-30T16:05:32.414Z,8.18
2017-10-30T16:07:59.963Z,6.78
2017-10-30T16:10:27.492Z,13.23
2017-10-30T16:12:55.018Z,14.52
2017-10-30T16:15:23.536Z,7.45
2017-10-30T16:17:51.079Z,14.32
2017-10-30T16:20:18.631Z,12.52
2017-10-30T16:22:46.139Z,7.93
2017-10-30T16:25:13.778Z,9.63
2017-10-30T16:27:41.287Z,9.20
2017-10-30T16:30:09.561Z,7.25
2017-10-30T16:32:37.857Z,11.55
2017-10-30T16:35:05.364Z,7.75
2017-10-30T16:37:32.888Z,10.73
2017-10-30T16:40:00.392Z,8.88
2017-10-30T16:42:27.932Z,16.92
2017-10-30T16:44:55.476Z,9.77
2017-10-30T16:47:23.008Z,12.95
2017-10-30T16:49:51.115Z,9.50
2017-10-30T16:52:19.176Z,15.00
2017-10-30T16:54:46.688Z,15.50
2017-10-30T16:57:14.981Z,8.18
2017-10-30T16:59:43.271Z,9.23
2017-10-30T17:02:10.818Z,11.95
2017-10-30T17:04:38.324Z,18.27
2017-10-30T17:07:05.972Z,13.02
2017-10-30T17:09:33.627Z,10.57
2017-10-30T17:12:01.390Z,12.50
2017-10-30T17:14:28.935Z,10.30
2017-10-30T17:16:56.464Z,12.98
2017-10-30T17:19:24.737Z,16.73
2017-10-30T17:21:53.029Z,17.83
2017-10-30T17:24:21.320Z,14.65
2017-10-30T17:26:48.915Z,8.52
2017-10-30T17:29:16.439Z,11.32
2017-10-30T17:31:43.996Z,8.13
2017-10-30T17:34:11.512Z,12.50
2017-10-30T17:36:39.021Z,18.02
2017-10-30T17:39:07.008Z,21.15
2017-10-30T17:41:34.532Z,16.62
2017-10-30T17:44:02.077Z,10.77
2017-10-30T17:46:30.427Z,12.70
2017-10-30T17:48:57.956Z,10.00
2017-10-30T17:51:25.479Z,16.90
2017-10-30T17:53:53.776Z,18.30
2017-10-30T17:56:21.287Z,15.93
2017-10-30T17:58:48.909Z,15.90
2017-10-30T18:01:16.413Z,18.50
2017-10-30T18:03:44.699Z,10.52
2017-10-30T18:06:13.000Z,19.25
2017-10-30T18:08:40.517Z,17.58
2017-10-30T18:11:08.073Z,8.40
2017-10-30T18:13:37.106Z,16.67
2017-10-30T18:16:04.664Z,18.67
2017-10-30T18:18:32.187Z,17.17
2017-10-30T18:20:59.697Z,21.23
2017-10-30T18:23:27.230Z,19.65
2017-10-30T18:25:55.523Z,12.65
2017-10-30T18:28:23.058Z,10.63
2017-10-30T18:30:51.337Z,12.75
2017-10-30T18:33:19.662Z,13.95
2017-10-30T18:35:47.168Z,14.93
2017-10-30T18:38:15.436Z,13.65
2017-10-30T18:40:42.956Z,13.48
2017-10-30T18:43:10.487Z,12.25
2017-10-30T18:45:38.022Z,9.30
2017-10-30T18:48:06.324Z,7.65
2017-10-30T18:50:33.881Z,12.73
2017-10-30T18:53:01.389Z,12.20
2017-10-30T18:55:28.896Z,13.85
2017-10-30T18:57:56.435Z,15.88
2017-10-30T19:00:24.841Z,9.45
2017-10-30T19:02:52.369Z,25.37
2017-10-30T19:05:20.637Z,28.58
2017-10-30T19:07:48.937Z,27.52
2017-10-30T19:10:16.450Z,26.65
2017-10-30T19:12:43.967Z,22.92
2017-10-30T19:15:11.496Z,20.55
2017-10-30T19:17:39.788Z,11.43
2017-10-30T19:20:07.348Z,12.68
2017-10-30T19:22:34.864Z,22.50
2017-10-30T19:25:02.415Z,28.60
2017-10-30T19:27:29.921Z,29.45
2017-10-30T19:29:58.211Z,20.85
2017-10-30T19:32:25.751Z,19.05
2017-10-30T19:34:54.041Z,18.52
2017-10-30T19:37:21.568Z,27.62
2017-10-30T19:39:49.086Z,17.05
2017-10-30T19:42:16.617Z,16.10
2017-10-30T19:44:44.153Z,25.75
2017-10-30T19:47:12.438Z,15.25
2017-10-30T19:49:40.742Z,22.27
2017-10-30T19:52:08.253Z,20.73
2017-10-30T19:54:35.772Z,20.85
2017-10-30T19:57:03.288Z,47.38
2017-10-30T19:59:31.581Z,22.50
2017-10-30T20:01:59.096Z,26.55
2017-10-30T20:04:26.614Z,22.50
2017-10-30T20:10:17.702Z,16.27
2017-10-30T20:12:45.968Z,17.35
2017-10-30T20:15:13.469Z,15.93
2017-10-30T20:17:41.005Z,31.15
2017-10-30T20:20:09.285Z,29.55
2017-10-30T20:22:37.590Z,32.20
2017-10-30T20:25:05.088Z,26.25
2017-10-30T20:27:32.620Z,20.02
2017-10-30T20:30:00.126Z,11.30
2017-10-30T20:32:28.411Z,23.02
2017-10-30T20:34:56.710Z,19.37
2017-10-30T20:43:05.887Z,18.33
2017-10-30T20:45:33.406Z,29.90
2017-10-30T20:48:01.710Z,24.55
2017-10-30T20:50:29.217Z,26.77
2017-10-30T20:52:56.851Z,21.67
2017-10-30T20:55:24.402Z,25.12
2017-10-30T20:57:51.914Z,20.52
2017-10-30T21:00:20.233Z,22.90
2017-10-30T21:02:47.759Z,22.65
2017-10-30T21:05:16.033Z,31.05
2017-10-30T21:07:44.358Z,34.03
2017-10-30T21:10:11.856Z,31.10
2017-10-30T21:12:40.160Z,38.55
2017-10-30T21:15:07.699Z,34.95
2017-10-30T21:17:36.015Z,38.63
2017-10-30T21:20:03.541Z,18.23
2017-10-30T21:22:31.822Z,24.58
2017-10-30T21:24:59.371Z,24.12
2017-10-30T21:27:27.655Z,20.90
2017-10-30T21:29:55.944Z,28.02
2017-10-30T21:32:23.463Z,31.20
2017-10-30T21:34:51.011Z,18.80
2017-10-30T21:37:18.508Z,20.60
2017-10-30T21:39:46.032Z,20.00
2017-10-30T21:42:13.555Z,32.72
2017-10-30T21:44:41.091Z,27.25
2017-10-30T21:47:08.616Z,20.90
2017-10-30T21:49:36.917Z,22.77
2017-10-30T21:52:05.199Z,19.73
2017-10-30T21:54:32.743Z,20.52
2017-10-30T21:57:01.032Z,23.50
2017-10-30T21:59:28.598Z,28.95
2017-10-30T22:01:56.104Z,29.10
2017-10-30T22:04:23.633Z,18.27
2017-10-30T22:06:51.157Z,20.80
2017-10-30T22:09:19.442Z,26.02
2017-10-30T22:11:47.752Z,15.30
2017-10-30T22:14:15.271Z,19.67
2017-10-30T22:16:43.579Z,25.52
2017-10-30T22:19:11.086Z,18.50
2017-10-30T22:21:38.690Z,40.05
2017-10-30T22:24:06.252Z,21.83
2017-10-30T22:26:33.807Z,25.10
2017-10-30T22:29:01.327Z,23.17
2017-10-30T22:31:29.630Z,15.60
2017-10-30T22:33:57.151Z,17.62
2017-10-30T22:36:24.685Z,21.62
2017-10-30T22:38:52.193Z,21.58
2017-10-30T22:41:20.499Z,24.98
2017-10-30T22:43:48.014Z,19.62
2017-10-30T22:46:16.316Z,15.65
2017-10-30T22:48:43.851Z,20.15
2017-10-30T22:51:12.168Z,15.30
2017-10-30T22:53:39.692Z,16.85
2017-10-30T22:56:07.979Z,24.45
2017-10-30T22:58:36.264Z,34.42
2017-10-30T23:01:03.786Z,24.10
2017-10-30T23:03:32.832Z,16.95
2017-10-30T23:06:00.345Z,28.20
2017-10-30T23:08:28.636Z,16.00
2017-10-30T23:10:56.904Z,17.83
2017-10-30T23:13:25.207Z,19.08
2017-10-30T23:15:52.723Z,20.70
2017-10-30T23:18:20.256Z,29.67
2017-10-30T23:20:47.756Z,19.30
2017-10-30T23:23:16.046Z,29.52
2017-10-30T23:25:44.344Z,18.65
2017-10-30T23:28:11.841Z,24.08
2017-10-30T23:30:39.391Z,15.05
2017-10-30T23:33:06.892Z,20.62
2017-10-30T23:35:35.203Z,18.20
2017-10-30T23:38:02.705Z,15.68
2017-10-30T23:40:30.222Z,14.80
2017-10-30T23:42:57.744Z,16.70
2017-10-30T23:45:26.015Z,17.20
2017-10-30T23:47:54.305Z,18.48
2017-10-30T23:50:21.805Z,22.25
2017-10-30T23:52:49.337Z,30.17
2017-10-30T23:55:16.850Z,19.20
2017-10-30T23:57:44.348Z,25.37
